Time;durP1;ratioP1;P1;durP2;ratioP2;P2;SDS_P1;SDS_P2;PMS_P1;PMS_P2;Temp;Humidity;BMP_temperature;BMP_pressure;BME280_temperature;BME280_humidity;BME280_pressure;Samples;Min_cycle;Max_cycle;Signal;HPM_P1;HPM_P2
2021/10/29 00:00:51;;;;;;;;;;;;;;;5.24;100.00;96096.09;5097538;28;19924;-75
2021/10/29 00:03:16;;;;;;;;;;;;;;;5.46;100.00;96094.00;5080958;28;19924;-75
2021/10/29 00:05:43;;;;;;;;;;;;;;;5.50;100.00;96082.97;5058748;28;19932;-75
2021/10/29 00:08:08;;;;;;;;;;;;;;;5.77;100.00;96082.84;5075667;28;20376;-75
2021/10/29 00:10:37;;;;;;;;;;;;;;;5.73;100.00;96084.25;5076190;28;19925;-75
2021/10/29 00:13:03;;;;;;;;;;;;;;;5.61;100.00;96075.50;5082420;28;19935;-75
2021/10/29 00:15:29;;;;;;;;;;;;;;;5.59;100.00;96074.88;5086205;28;19925;-75
2021/10/29 00:17:55;;;;;;;;;;;;;;;5.61;100.00;96073.69;5059371;28;19924;-76
2021/10/29 00:20:20;;;;;;;;;;;;;;;5.58;100.00;96068.06;5075389;28;19954;-75
2021/10/29 00:22:47;;;;;;;;;;;;;;;5.62;100.00;96064.03;5075600;28;20388;-76
2021/10/29 00:25:15;;;;;;;;;;;;;;;5.69;100.00;96054.38;5080268;28;20509;-75
2021/10/29 00:27:41;;;;;;;;;;;;;;;5.41;100.00;96063.31;5080337;28;20459;-75
2021/10/29 00:30:07;;;;;;;;;;;;;;;5.61;100.00;96057.22;5078501;28;19928;-75
2021/10/29 00:32:33;;;;;;;;;;;;;;;5.78;100.00;96064.38;5083452;28;20030;-75
2021/10/29 00:34:58;;;;;;;;;;;;;;;5.58;100.00;96062.84;5062615;28;20348;-75
2021/10/29 00:37:24;;;;;;;;;;;;;;;5.44;100.00;96060.31;5089016;28;20308;-75
2021/10/29 00:39:51;;;;;;;;;;;;;;;5.07;100.00;96055.81;5078373;28;19928;-75
2021/10/29 00:42:16;;;;;;;;;;;;;;;5.15;100.00;96056.38;5075980;28;19913;-75
2021/10/29 00:44:42;;;;;;;;;;;;;;;4.96;100.00;96059.84;5074981;28;19948;-75
2021/10/29 00:47:07;;;;;;;;;;;;;;;4.87;100.00;96056.66;5075958;28;19924;-75
2021/10/29 00:49:35;;;;;;;;;;;;;;;5.10;100.00;96047.56;5057244;28;19925;-75
2021/10/29 00:52:03;;;;;;;;;;;;;;;5.23;100.00;96050.94;5074584;28;19920;-75
2021/10/29 00:54:28;;;;;;;;;;;;;;;5.22;100.00;96051.16;5075227;28;19954;-74
2021/10/29 00:56:55;;;;;;;;;;;;;;;5.24;100.00;96054.34;5074657;28;20266;-74
2021/10/29 00:59:23;;;;;;;;;;;;;;;4.90;100.00;96058.84;5074011;28;19925;-75
2021/10/29 01:01:49;;;;;;;;;;;;;;;5.11;100.00;96054.38;5056875;28;20015;-75
2021/10/29 01:04:14;;;;;;;;;;;;;;;5.35;100.00;96051.09;5056610;28;19959;-75
2021/10/29 01:06:41;;;;;;;;;;;;;;;5.23;100.00;96050.16;5074415;28;19928;-75
2021/10/29 01:09:06;;;;;;;;;;;;;;;5.07;100.00;96053.22;5073820;28;19932;-76
2021/10/29 01:11:34;;;;;;;;;;;;;;;5.25;100.00;96045.53;5074629;28;19924;-75
2021/10/29 01:14:03;;;;;;;;;;;;;;;5.27;100.00;96040.88;5056311;28;20011;-75
2021/10/29 01:16:29;;;;;;;;;;;;;;;5.05;100.00;96039.56;5056189;28;19925;-74
2021/10/29 01:18:56;;;;;;;;;;;;;;;4.85;100.00;96037.81;5074446;28;19987;-75
2021/10/29 01:21:26;;;;;;;;;;;;;;;4.92;100.00;96033.38;5074186;28;19931;-74
2021/10/29 01:23:51;;;;;;;;;;;;;;;5.12;100.00;96035.16;5073854;28;20061;-74
2021/10/29 01:26:17;;;;;;;;;;;;;;;5.23;100.00;96031.91;5073895;28;20376;-74
2021/10/29 01:28:43;;;;;;;;;;;;;;;5.10;100.00;96024.91;5056009;28;19924;-74
2021/10/29 01:31:08;;;;;;;;;;;;;;;5.25;100.00;96027.28;5074139;28;19936;-75
2021/10/29 01:33:34;;;;;;;;;;;;;;;5.05;100.00;96021.31;5074004;28;19974;-75
2021/10/29 01:36:00;;;;;;;;;;;;;;;5.18;100.00;96016.88;5073587;28;19929;-75
2021/10/29 01:38:29;;;;;;;;;;;;;;;5.15;100.00;96022.47;5073562;28;19928;-74
2021/10/29 01:40:55;;;;;;;;;;;;;;;4.99;100.00;96023.72;5073485;28;19925;-75
2021/10/29 01:43:23;;;;;;;;;;;;;;;4.89;100.00;96023.34;5078638;28;19975;-74
2021/10/29 01:45:50;;;;;;;;;;;;;;;4.83;100.00;96029.38;5066674;28;19925;-75
2021/10/29 01:48:16;;;;;;;;;;;;;;;4.96;100.00;96018.94;5058887;28;19932;-75
2021/10/29 01:50:43;;;;;;;;;;;;;;;5.18;100.00;96021.28;5075324;28;19928;-75
2021/10/29 01:53:09;;;;;;;;;;;;;;;5.07;100.00;96020.13;5074083;28;20019;-75
2021/10/29 01:55:36;;;;;;;;;;;;;;;5.05;100.00;96021.31;5074208;28;20017;-75
2021/10/29 01:58:01;;;;;;;;;;;;;;;4.94;100.00;96010.50;5074134;28;19924;-74
2021/10/29 02:00:29;;;;;;;;;;;;;;;4.90;100.00;96009.34;5056460;28;19931;-75
2021/10/29 02:02:56;;;;;;;;;;;;;;;4.84;100.00;96007.53;5055440;28;19930;-75
2021/10/29 02:05:22;;;;;;;;;;;;;;;4.58;100.00;96005.00;5055512;28;20007;-75
2021/10/29 02:07:47;;;;;;;;;;;;;;;4.66;100.00;96000.34;5074381;28;20375;-75
2021/10/29 02:10:12;;;;;;;;;;;;;;;4.78;100.00;95995.31;5073765;28;19963;-75
2021/10/29 02:12:39;;;;;;;;;;;;;;;4.77;100.00;95993.72;5056219;28;19925;-75
2021/10/29 02:15:05;;;;;;;;;;;;;;;4.77;100.00;95993.72;5055929;28;20066;-75
2021/10/29 02:17:31;;;;;;;;;;;;;;;4.80;100.00;96006.34;5073243;28;20006;-75
2021/10/29 02:19:57;;;;;;;;;;;;;;;4.77;100.00;95993.72;5055461;28;20020;-75
2021/10/29 02:22:22;;;;;;;;;;;;;;;4.83;100.00;96005.13;5072822;28;20027;-75
2021/10/29 02:24:48;;;;;;;;;;;;;;;4.92;100.00;96003.91;5055212;28;20007;-75
2021/10/29 02:27:13;;;;;;;;;;;;;;;4.84;100.00;96007.53;5072951;28;19978;-74
2021/10/29 02:29:42;;;;;;;;;;;;;;;4.85;100.00;95990.91;5054854;28;19928;-75
2021/10/29 02:32:07;;;;;;;;;;;;;;;4.86;100.00;95997.72;5072226;28;19928;-75
2021/10/29 02:34:33;;;;;;;;;;;;;;;4.93;100.00;95993.28;5072772;28;20342;-75
2021/10/29 02:36:58;;;;;;;;;;;;;;;4.91;100.00;95994.50;5072837;28;19960;-75
2021/10/29 02:39:24;;;;;;;;;;;;;;;5.06;100.00;95986.41;5055730;28;19928;-75
2021/10/29 02:41:49;;;;;;;;;;;;;;;5.04;100.00;95988.44;5072489;28;20011;-75
2021/10/29 02:44:15;;;;;;;;;;;;;;;5.11;100.00;95984.00;5073336;28;20365;-75
2021/10/29 02:46:41;;;;;;;;;;;;;;;5.03;100.00;95984.22;5073490;28;19925;-75
2021/10/29 02:49:09;;;;;;;;;;;;;;;4.96;100.00;95979.84;5073490;28;19924;-76
2021/10/29 02:51:37;;;;;;;;;;;;;;;4.82;100.00;95980.88;5088209;28;19913;-75
2021/10/29 02:54:02;;;;;;;;;;;;;;;4.83;100.00;95971.25;5073440;28;19924;-76
2021/10/29 02:56:28;;;;;;;;;;;;;;;4.76;100.00;95960.84;5077587;28;19932;-75
2021/10/29 02:58:53;;;;;;;;;;;;;;;4.78;100.00;95977.06;5074204;28;19924;-76
2021/10/29 03:01:19;;;;;;;;;;;;;;;4.71;100.00;95969.28;5072590;28;19924;-76
2021/10/29 03:03:46;;;;;;;;;;;;;;;4.43;100.00;95966.94;5072912;28;19931;-76
2021/10/29 03:06:11;;;;;;;;;;;;;;;4.59;100.00;95964.91;5072672;28;19924;-76
2021/10/29 03:08:36;;;;;;;;;;;;;;;4.68;100.00;95961.91;5073183;28;20296;-76
2021/10/29 03:11:02;;;;;;;;;;;;;;;4.47;100.00;95967.34;5072275;28;19951;-76
2021/10/29 03:13:27;;;;;;;;;;;;;;;4.45;100.00;95962.31;5072551;28;19931;-76
2021/10/29 03:15:55;;;;;;;;;;;;;;;4.69;100.00;95970.50;5072797;28;19925;-76
2021/10/29 03:18:23;;;;;;;;;;;;;;;4.54;100.00;95962.91;5054313;28;20341;-75
2021/10/29 03:20:50;;;;;;;;;;;;;;;4.52;100.00;95974.53;5054060;28;19925;-75
2021/10/29 03:23:16;;;;;;;;;;;;;;;4.56;100.00;95965.31;5075898;28;19928;-74
2021/10/29 03:25:42;;;;;;;;;;;;;;;4.68;100.00;95968.88;5058348;28;19924;-74
2021/10/29 03:28:07;;;;;;;;;;;;;;;4.67;100.00;95951.66;5075707;28;19978;-75
2021/10/29 03:30:33;;;;;;;;;;;;;;;4.82;100.00;95956.63;5058570;28;20282;-75
2021/10/29 03:32:59;;;;;;;;;;;;;;;4.71;100.00;95955.47;5076146;28;20035;-75
2021/10/29 03:35:26;;;;;;;;;;;;;;;4.59;100.00;95949.28;5058320;28;19912;-75
2021/10/29 03:43:36;;;;;;;;;;;;;;;4.44;100.00;95950.31;5075351;28;19924;-74
2021/10/29 03:45:40;;;;;;;;;;;;;;;4.25;100.00;95956.38;5060509;28;20167;-74
2021/10/29 03:48:06;;;;;;;;;;;;;;;4.33;100.00;95963.16;5076123;28;20380;-74
2021/10/29 03:50:34;;;;;;;;;;;;;;;4.13;100.00;95950.16;5074865;28;19924;-74
2021/10/29 03:53:12;;;;;;;;;;;;;;;4.29;100.00;95957.53;5076387;28;19970;-75
2021/10/29 03:55:41;;;;;;;;;;;;;;;4.17;100.00;95962.56;5075593;28;19987;-75
2021/10/29 03:58:07;;;;;;;;;;;;;;;4.24;100.00;95957.34;5075905;28;19999;-75
2021/10/29 04:00:34;;;;;;;;;;;;;;;4.50;100.00;95963.53;5075457;28;19924;-75
2021/10/29 04:03:02;;;;;;;;;;;;;;;4.41;100.00;95963.75;5075248;28;19964;-76
2021/10/29 04:05:27;;;;;;;;;;;;;;;4.39;100.00;95962.34;5056627;28;20320;-74
2021/10/29 04:07:53;;;;;;;;;;;;;;;4.44;100.00;95967.75;5074944;28;20134;-74
2021/10/29 04:10:24;;;;;;;;;;;;;;;4.45;100.00;95946.69;5085998;28;19924;-73
2021/10/29 04:12:49;;;;;;;;;;;;;;;4.44;100.00;95952.91;5091915;28;19925;-72
2021/10/29 04:15:14;;;;;;;;;;;;;;;4.48;100.00;95948.91;5079598;28;19996;-73
2021/10/29 04:17:40;;;;;;;;;;;;;;;4.39;100.00;95950.13;5098736;28;19908;-73
2021/10/29 04:20:08;;;;;;;;;;;;;;;4.42;100.00;95943.72;5080981;28;19924;-73
2021/10/29 04:22:33;;;;;;;;;;;;;;;4.28;100.00;95937.72;5086849;28;19924;-73
2021/10/29 04:24:59;;;;;;;;;;;;;;;4.16;100.00;95947.16;5075254;28;20313;-72
2021/10/29 04:27:31;;;;;;;;;;;;;;;4.01;100.00;95946.56;5075131;28;19925;-75
2021/10/29 04:29:57;;;;;;;;;;;;;;;4.16;100.00;95947.16;5057763;28;19932;-74
2021/10/29 04:32:22;;;;;;;;;;;;;;;4.27;100.00;95948.34;5075397;28;19925;-73
2021/10/29 04:34:47;;;;;;;;;;;;;;;4.24;100.00;95946.94;5075357;28;19950;-73
2021/10/29 04:37:13;;;;;;;;;;;;;;;3.98;100.00;95944.34;5056794;28;19925;-73
2021/10/29 04:39:38;;;;;;;;;;;;;;;4.00;100.00;95944.94;5076163;28;19928;-72
2021/10/29 04:42:04;;;;;;;;;;;;;;;4.15;100.00;95948.16;5057968;28;20394;-73
2021/10/29 04:44:31;;;;;;;;;;;;;;;4.08;100.00;95939.53;5074987;28;20360;-72
2021/10/29 04:46:56;;;;;;;;;;;;;;;4.07;100.00;95945.75;5074905;28;19979;-73
2021/10/29 04:49:21;;;;;;;;;;;;;;;4.12;100.00;95945.94;5075234;28;20392;-73
2021/10/29 04:51:49;;;;;;;;;;;;;;;4.11;100.00;95941.75;5075363;28;19932;-73
2021/10/29 04:54:15;;;;;;;;;;;;;;;4.13;100.00;95937.91;5075675;28;19998;-75
2021/10/29 04:56:43;;;;;;;;;;;;;;;4.07;100.00;95924.91;5074627;28;19933;-74
2021/10/29 04:59:08;;;;;;;;;;;;;;;4.19;100.00;95931.09;5057336;28;19931;-73
2021/10/29 05:01:35;;;;;;;;;;;;;;;4.10;100.00;95927.13;5075671;28;19924;-73
2021/10/29 05:04:00;;;;;;;;;;;;;;;4.08;100.00;95927.31;5077251;28;20273;-73
2021/10/29 05:06:26;;;;;;;;;;;;;;;4.12;100.00;95927.72;5076496;28;20446;-72
2021/10/29 05:08:51;;;;;;;;;;;;;;;3.98;100.00;95919.09;5077972;28;19932;-73
2021/10/29 05:11:16;;;;;;;;;;;;;;;3.89;100.00;95921.13;5075171;28;19931;-73
2021/10/29 05:13:42;;;;;;;;;;;;;;;4.09;100.00;95928.13;5074930;28;20413;-73
2021/10/29 05:16:07;;;;;;;;;;;;;;;4.27;100.00;95922.31;5056250;28;19925;-73
2021/10/29 05:18:34;;;;;;;;;;;;;;;4.20;100.00;95922.31;5076067;28;20003;-73
2021/10/29 05:20:59;;;;;;;;;;;;;;;4.09;100.00;95928.13;5075632;28;19928;-74
2021/10/29 05:23:25;;;;;;;;;;;;;;;4.02;100.00;95927.31;5075226;28;20118;-72
2021/10/29 05:25:52;;;;;;;;;;;;;;;4.09;100.00;95917.69;5056930;28;20030;-73
2021/10/29 05:28:18;;;;;;;;;;;;;;;4.40;100.00;95915.25;5074790;28;20392;-73
2021/10/29 05:30:43;;;;;;;;;;;;;;;4.32;100.00;95906.88;5074590;28;19948;-73
2021/10/29 05:33:09;;;;;;;;;;;;;;;4.28;100.00;95922.09;5056695;28;19928;-74
2021/10/29 05:35:38;;;;;;;;;;;;;;;4.28;100.00;95926.50;5074274;28;19924;-73
2021/10/29 05:38:03;;;;;;;;;;;;;;;4.00;100.00;95917.13;5060774;28;19929;-71
2021/10/29 05:40:29;;;;;;;;;;;;;;;3.94;100.00;95910.94;5096892;28;19994;-72
2021/10/29 05:42:54;;;;;;;;;;;;;;;3.85;100.00;95913.94;5097030;28;19923;-71
2021/10/29 05:45:20;;;;;;;;;;;;;;;4.00;100.00;95913.72;5077173;28;19984;-73
2021/10/29 05:47:45;;;;;;;;;;;;;;;4.33;100.00;95909.25;5075180;28;19947;-73
2021/10/29 05:50:11;;;;;;;;;;;;;;;4.25;100.00;95919.91;5074870;28;19928;-73
2021/10/29 05:52:41;;;;;;;;;;;;;;;4.40;100.00;95923.06;5057266;28;19931;-74
2021/10/29 05:55:16;;;;;;;;;;;;;;;4.08;100.00;95916.91;5074612;28;19948;-73
2021/10/29 05:57:43;;;;;;;;;;;;;;;4.10;100.00;95932.34;5056372;28;19936;-74
2021/10/29 06:00:09;;;;;;;;;;;;;;;4.23;100.00;95919.28;5074887;28;20019;-74
2021/10/29 06:02:34;;;;;;;;;;;;;;;4.25;100.00;95927.72;5074476;28;20023;-74
2021/10/29 06:05:00;;;;;;;;;;;;;;;4.44;100.00;95929.47;5073906;28;20224;-74
2021/10/29 06:07:26;;;;;;;;;;;;;;;4.60;100.00;95928.22;5073571;28;19925;-73
2021/10/29 06:09:53;;;;;;;;;;;;;;;4.46;100.00;95927.44;5074533;28;19965;-73
2021/10/29 06:12:18;;;;;;;;;;;;;;;4.35;100.00;95928.09;5074841;28;19924;-74
2021/10/29 06:14:43;;;;;;;;;;;;;;;4.04;100.00;95926.13;5074175;28;20299;-74
2021/10/29 06:17:16;;;;;;;;;;;;;;;3.91;100.00;95921.72;5073463;28;19928;-74
2021/10/29 06:19:41;;;;;;;;;;;;;;;4.06;100.00;95920.72;5073718;28;19936;-73
2021/10/29 06:22:26;;;;;;;;;;;;;;;3.99;100.00;95925.94;5056373;28;19924;-74
2021/10/29 06:24:53;;;;;;;;;;;;;;;3.90;100.00;95914.91;5073416;28;19989;-73
2021/10/29 06:29:44;;;;;;;;;;;;;;;3.93;100.00;95917.13;5073556;28;19947;-74
2021/10/29 06:32:10;;;;;;;;;;;;;;;4.02;100.00;95917.72;5074298;28;19932;-74
2021/10/29 06:34:36;;;;;;;;;;;;;;;4.35;100.00;95919.47;5074182;28;20023;-74
2021/10/29 06:37:02;;;;;;;;;;;;;;;4.26;100.00;95926.72;5074080;28;19968;-74
2021/10/29 06:39:30;;;;;;;;;;;;;;;4.30;100.00;95932.28;5073751;28;19924;-75
2021/10/29 06:41:58;;;;;;;;;;;;;;;4.35;100.00;95917.66;5055822;28;19925;-74
2021/10/29 07:00:14;;;;;;;;;;;;;;;4.68;100.00;95943.66;5076892;28;19978;-73
2021/10/29 07:05:27;;;;;;;;;;;;;;;4.72;100.00;95957.06;5076272;28;19931;-74
2021/10/29 07:40:15;;;;;;;;;;;;;;;4.74;100.00;95965.50;5076499;28;19931;-74
2021/10/29 07:42:51;;;;;;;;;;;;;;;5.02;100.00;95959.19;5075998;28;19932;-75
2021/10/29 07:45:18;;;;;;;;;;;;;;;4.81;100.00;95960.25;5076134;28;20283;-75
2021/10/29 07:47:43;;;;;;;;;;;;;;;4.82;100.00;95954.03;5076942;28;20168;-75
2021/10/29 07:50:12;;;;;;;;;;;;;;;4.62;100.00;95960.06;5076990;28;20315;-73
2021/10/29 07:52:38;;;;;;;;;;;;;;;4.73;100.00;95961.25;5077388;28;19932;-75
2021/10/29 07:55:11;;;;;;;;;;;;;;;4.92;100.00;95960.41;5077112;28;19924;-74
2021/10/29 07:57:37;;;;;;;;;;;;;;;4.91;100.00;95958.81;5076720;28;19932;-74
2021/10/29 08:00:04;;;;;;;;;;;;;;;5.12;100.00;95964.75;5058741;28;20006;-75
2021/10/29 08:02:33;;;;;;;;;;;;;;;5.13;100.00;95966.34;5077749;28;19970;-75
2021/10/29 08:04:59;;;;;;;;;;;;;;;4.83;100.00;95961.63;5077411;28;20381;-73
2021/10/29 08:07:27;;;;;;;;;;;;;;;4.92;100.00;95957.81;5076568;28;19925;-75
2021/10/29 08:09:52;;;;;;;;;;;;;;;5.20;100.00;95954.06;5076001;28;19933;-74
2021/10/29 08:12:19;;;;;;;;;;;;;;;5.37;100.00;95955.19;5076872;28;19925;-75
2021/10/29 08:14:46;;;;;;;;;;;;;;;5.49;100.00;95950.94;5076990;28;19932;-74
2021/10/29 08:17:14;;;;;;;;;;;;;;;5.72;98.49;95949.56;5076511;28;20058;-72
2021/10/29 08:19:41;;;;;;;;;;;;;;;5.58;98.89;95953.25;5076882;28;19926;-73
2021/10/29 08:22:06;;;;;;;;;;;;;;;5.56;99.24;95955.31;5077192;28;19982;-73
2021/10/29 08:24:32;;;;;;;;;;;;;;;5.66;98.53;95953.81;5077446;28;20350;-73
2021/10/29 08:27:00;;;;;;;;;;;;;;;5.54;98.84;95942.44;5077000;28;19925;-74
2021/10/29 08:29:26;;;;;;;;;;;;;;;5.24;99.50;95953.44;5077995;28;19986;-74
2021/10/29 08:31:52;;;;;;;;;;;;;;;5.40;100.00;95946.94;5077660;28;19929;-74
2021/10/29 08:34:17;;;;;;;;;;;;;;;5.38;99.80;95954.19;5077022;28;20361;-74
2021/10/29 08:36:45;;;;;;;;;;;;;;;5.28;99.59;95951.25;5080234;28;19925;-74
2021/10/29 08:39:11;;;;;;;;;;;;;;;5.53;99.27;95941.66;5076068;28;19924;-74
2021/10/29 08:41:39;;;;;;;;;;;;;;;5.78;98.49;95943.50;5076079;28;19928;-74
2021/10/29 08:44:05;;;;;;;;;;;;;;;5.72;97.92;95946.97;5075902;28;19962;-75
2021/10/29 08:46:31;;;;;;;;;;;;;;;5.69;98.97;95936.94;5076027;28;19924;-74
2021/10/29 08:48:57;;;;;;;;;;;;;;;5.72;97.73;95933.91;5074714;28;20019;-74
2021/10/29 08:51:23;;;;;;;;;;;;;;;5.94;99.27;95943.00;5075230;28;19925;-73
2021/10/29 08:53:50;;;;;;;;;;;;;;;5.80;97.19;95944.88;5074606;28;19932;-75
2021/10/29 08:56:15;;;;;;;;;;;;;;;5.90;97.19;95935.78;5075265;28;19924;-75
2021/10/29 08:58:59;;;;;;;;;;;;;;;5.94;96.85;95927.34;5075610;28;20026;-74
2021/10/29 09:01:27;;;;;;;;;;;;;;;6.19;96.18;95936.97;5075152;28;19923;-74
2021/10/29 09:04:00;;;;;;;;;;;;;;;6.04;95.74;95935.50;5074679;28;19931;-72
2021/10/29 09:06:53;;;;;;;;;;;;;;;6.24;95.25;95947.56;5074467;28;19925;-73
2021/10/29 09:33:55;;;;;;;;;;;;;;;6.02;93.48;95932.28;5076241;28;19988;-74
2021/10/29 09:36:28;;;;;;;;;;;;;;;6.00;93.98;95930.91;5075871;28;20005;-73
2021/10/29 09:38:57;;;;;;;;;;;;;;;6.01;93.23;95928.09;5057817;28;20284;-75
2021/10/29 09:41:24;;;;;;;;;;;;;;;6.15;93.48;95917.53;5078036;28;19958;-74
2021/10/29 09:43:54;;;;;;;;;;;;;;;6.24;92.53;95917.06;5077167;28;19947;-73
2021/10/29 09:46:27;;;;;;;;;;;;;;;6.32;92.95;95931.66;5059033;28;19924;-73
2021/10/29 09:49:03;;;;;;;;;;;;;;;6.17;92.45;95924.13;5081213;28;20023;-73
2021/10/29 09:51:32;;;;;;;;;;;;;;;6.29;93.32;95930.25;5091743;28;20423;-73
2021/10/29 09:58:56;;;;;;;;;;;;;;;6.26;92.60;95922.06;5076324;28;19952;-74
2021/10/29 10:01:23;;;;;;;;;;;;;;;6.07;93.29;95923.81;5076013;28;20277;-73
2021/10/29 10:03:50;;;;;;;;;;;;;;;6.20;92.80;95920.31;5059227;28;20110;-74
2021/10/29 10:06:17;;;;;;;;;;;;;;;6.20;93.55;95922.94;5074730;28;20304;-74
2021/10/29 10:08:43;;;;;;;;;;;;;;;6.19;92.71;95923.91;5074651;28;19924;-74
2021/10/29 10:11:10;;;;;;;;;;;;;;;6.24;92.45;95918.84;5074223;28;19932;-75
2021/10/29 10:13:38;;;;;;;;;;;;;;;6.24;92.62;95924.91;5074740;28;19924;-73
2021/10/29 10:16:04;;;;;;;;;;;;;;;6.38;92.41;95933.38;5075293;28;19986;-74
2021/10/29 10:18:30;;;;;;;;;;;;;;;6.49;92.04;95927.44;5074775;28;20343;-74
2021/10/29 10:20:57;;;;;;;;;;;;;;;6.74;91.28;95922.16;5074711;28;20392;-74
2021/10/29 10:23:31;;;;;;;;;;;;;;;6.60;90.82;95920.72;5074803;28;19951;-75
2021/10/29 10:26:13;;;;;;;;;;;;;;;6.56;91.03;95914.31;5056585;28;20023;-73
2021/10/29 10:45:20;;;;;;;;;;;;;;;6.69;89.95;95903.72;5078111;28;19940;-74
2021/10/29 10:47:49;;;;;;;;;;;;;;;6.79;89.49;95911.06;5059913;28;20015;-74
2021/10/29 10:53:07;;;;;;;;;;;;;;;6.42;91.34;95905.81;5078330;28;19978;-75
2021/10/29 10:55:50;;;;;;;;;;;;;;;6.46;90.94;95906.19;5078324;28;20303;-74
2021/10/29 11:01:00;;;;;;;;;;;;;;;7.07;89.87;95895.63;5078854;28;19931;-74
2021/10/29 11:03:47;;;;;;;;;;;;;;;6.92;89.11;95902.25;5060264;28;19960;-74
2021/10/29 11:06:38;;;;;;;;;;;;;;;7.02;89.19;95895.47;5078475;28;19929;-74
2021/10/29 11:11:55;;;;;;;;;;;;;;;6.78;89.36;95886.75;5079583;28;19966;-74
2021/10/29 11:14:32;;;;;;;;;;;;;;;6.93;89.47;95882.94;5079760;28;20450;-73
2021/10/29 11:17:02;;;;;;;;;;;;;;;6.96;nan;95880.69;5078562;28;19973;-74
2021/10/29 11:19:35;;;;;;;;;;;;;;;7.00;89.66;95868.75;5080951;28;19925;-74
2021/10/29 11:22:00;;;;;;;;;;;;;;;7.12;88.46;95866.19;5066854;28;19924;-74
2021/10/29 11:24:27;;;;;;;;;;;;;;;7.10;89.16;95865.59;5082792;28;20304;-73
2021/10/29 11:27:03;;;;;;;;;;;;;;;7.12;88.76;95865.41;5082723;28;20342;-73
2021/10/29 11:29:31;;;;;;;;;;;;;;;7.10;89.17;95869.03;5083270;28;19931;-74
2021/10/29 11:31:58;;;;;;;;;;;;;;;7.23;88.20;95864.63;5082125;28;20356;-73
2021/10/29 11:34:25;;;;;;;;;;;;;;;7.20;87.79;95862.44;5083076;28;19924;-74
2021/10/29 11:36:52;;;;;;;;;;;;;;;7.29;88.41;95855.91;5064357;28;20301;-73
2021/10/29 11:39:21;;;;;;;;;;;;;;;7.26;88.18;95857.13;5065097;28;19924;-73
2021/10/29 11:41:47;;;;;;;;;;;;;;;7.42;87.77;95854.91;5081938;28;20381;-73
2021/10/29 11:44:14;;;;;;;;;;;;;;;7.44;87.87;95858.91;5081788;28;19928;-73
2021/10/29 11:46:41;;;;;;;;;;;;;;;7.17;87.99;95855.88;5082231;28;19924;-74
2021/10/29 11:49:09;;;;;;;;;;;;;;;7.28;87.63;95852.47;5082922;28;20007;-74
2021/10/29 11:51:37;;;;;;;;;;;;;;;7.33;88.10;95850.00;5082077;28;19982;-73
2021/10/29 11:56:59;;;;;;;;;;;;;;;7.58;87.47;95843.78;5082383;28;20392;-73
2021/10/29 12:07:27;;;;;;;;;;;;;;;7.51;87.45;95822.94;5077116;28;19947;-75
2021/10/29 12:09:53;;;;;;;;;;;;;;;7.53;86.70;95828.78;5078099;28;20440;-73
2021/10/29 12:12:21;;;;;;;;;;;;;;;7.35;87.52;95818.38;5076663;28;20299;-73
2021/10/29 12:14:50;;;;;;;;;;;;;;;7.43;87.02;95818.06;5077984;28;19982;-74
2021/10/29 12:17:22;;;;;;;;;;;;;;;7.34;87.61;95807.09;5077268;28;19932;-74
2021/10/29 12:19:51;;;;;;;;;;;;;;;7.26;87.80;95804.00;5059181;28;19925;-74
2021/10/29 12:24:51;;;;;;;;;;;;;;;7.65;87.04;95807.03;5077376;28;19928;-74
2021/10/29 12:27:20;;;;;;;;;;;;;;;7.71;86.46;95811.38;5077344;28;19932;-74
2021/10/29 12:30:00;;;;;;;;;;;;;;;7.65;86.35;95802.59;5078106;28;19996;-75
2021/10/29 12:32:42;;;;;;;;;;;;;;;7.68;85.70;95806.56;5077708;28;19936;-74
2021/10/29 13:03:02;;;;;;;;;;;;;;;7.52;87.72;95777.44;5077174;28;19974;-74
2021/10/29 13:05:27;;;;;;;;;;;;;;;7.44;87.91;95779.59;5076138;28;20322;-74
2021/10/29 13:07:53;;;;;;;;;;;;;;;7.35;88.56;95777.28;5085222;28;19928;-74
2021/10/29 13:10:21;;;;;;;;;;;;;;;7.28;88.24;95770.59;5076306;28;19935;-74
2021/10/29 13:13:15;;;;;;;;;;;;;;;7.39;88.36;95782.88;5058113;28;20256;-74
2021/10/29 13:15:33;;;;;;;;;;;;;;;7.25;88.93;95779.66;5079717;28;19925;-73
2021/10/29 13:18:05;;;;;;;;;;;;;;;7.31;88.97;95773.53;5058434;28;19940;-73
2021/10/29 13:21:09;;;;;;;;;;;;;;;7.43;88.31;95768.34;5077679;28;19968;-75
2021/10/29 13:36:58;;;;;;;;;;;;;;;7.76;87.01;95752.06;5095870;28;19927;-72
2021/10/29 13:58:21;;;;;;;;;;;;;;;7.65;87.40;95755.47;5075175;28;19984;-74
2021/10/29 14:35:25;;;;;;;;;;;;;;;7.72;87.18;95737.03;5075495;28;19925;-74
2021/10/29 14:40:41;;;;;;;;;;;;;;;7.84;87.45;95743.84;5075904;28;19925;-75
2021/10/29 14:43:15;;;;;;;;;;;;;;;7.80;86.97;95752.38;5075029;28;19999;-73
2021/10/29 14:48:22;;;;;;;;;;;;;;;7.70;87.49;95752.19;5075568;28;19979;-75
2021/10/29 15:05:03;;;;;;;;;;;;;;;7.34;90.07;95746.94;5003326;28;19926;-74
2021/10/29 15:16:04;;;;;;;;;;;;;;;7.19;91.22;95737.91;5075239;28;19986;-74
2021/10/29 15:27:06;;;;;;;;;;;;;;;6.84;92.90;95743.88;5088471;28;19936;-76
2021/10/29 15:43:31;;;;;;;;;;;;;;;6.84;93.62;95749.13;5080856;28;19919;-77
2021/10/29 15:46:04;;;;;;;;;;;;;;;6.98;93.65;95750.50;5077175;28;20495;-76
2021/10/29 15:48:39;;;;;;;;;;;;;;;6.96;93.71;95746.53;5081000;28;20001;-77
2021/10/29 15:51:05;;;;;;;;;;;;;;;7.03;93.67;95750.63;5047970;28;20031;-76
2021/10/29 15:53:31;;;;;;;;;;;;;;;6.89;94.02;95741.41;5043730;28;19924;-77
2021/10/29 15:56:04;;;;;;;;;;;;;;;6.91;94.17;95741.97;5071714;28;19968;-78
2021/10/29 16:01:43;;;;;;;;;;;;;;;6.88;94.42;95752.06;5055068;28;20011;-77
2021/10/29 16:17:50;;;;;;;;;;;;;;;7.01;94.19;95752.69;5078028;28;19976;-77
2021/10/29 16:20:16;;;;;;;;;;;;;;;6.97;93.79;95763.81;5075133;28;20015;-77
2021/10/29 16:22:41;;;;;;;;;;;;;;;7.11;93.11;95757.38;5061620;28;19928;-79
2021/10/29 16:25:19;;;;;;;;;;;;;;;7.08;93.41;95763.84;5062757;28;19935;-77
2021/10/29 16:27:57;;;;;;;;;;;;;;;7.01;93.52;95754.50;5079126;28;19935;-78
2021/10/29 16:30:26;;;;;;;;;;;;;;;7.03;93.43;95748.00;5077898;28;19936;-77
2021/10/29 16:35:23;;;;;;;;;;;;;;;6.98;94.70;95753.13;5079440;28;19950;-77
2021/10/29 16:37:49;;;;;;;;;;;;;;;6.89;94.93;95751.03;5077445;28;20400;-77
2021/10/29 16:40:16;;;;;;;;;;;;;;;6.95;94.96;95758.81;5078867;28;19924;-78
2021/10/29 16:42:41;;;;;;;;;;;;;;;6.99;94.57;95756.53;5079585;28;19925;-77
2021/10/29 16:45:10;;;;;;;;;;;;;;;6.97;94.88;95762.00;5079474;28;19924;-77
2021/10/29 16:47:41;;;;;;;;;;;;;;;6.96;94.67;95752.56;5071017;28;19928;-77
2021/10/29 16:50:07;;;;;;;;;;;;;;;7.06;94.70;95758.03;5078959;28;20019;-76
2021/10/29 16:52:32;;;;;;;;;;;;;;;7.08;94.50;95766.44;5077382;28;19924;-76
2021/10/29 16:54:58;;;;;;;;;;;;;;;7.02;94.51;95764.72;5069698;28;19970;-75
2021/10/29 16:57:25;;;;;;;;;;;;;;;6.62;96.46;95766.28;5070977;28;19928;-76
2021/10/29 16:59:50;;;;;;;;;;;;;;;6.62;96.48;95768.91;5056787;28;19928;-75
2021/10/29 17:02:15;;;;;;;;;;;;;;;6.75;95.76;95763.50;5059153;28;20507;-74
2021/10/29 17:04:44;;;;;;;;;;;;;;;6.24;97.92;95773.41;5063494;28;20408;-76
2021/10/29 17:07:09;;;;;;;;;;;;;;;6.30;98.88;95771.72;5056721;28;19925;-74
2021/10/29 17:09:35;;;;;;;;;;;;;;;6.35;98.53;95774.50;5052047;28;19938;-74
2021/10/29 17:12:00;;;;;;;;;;;;;;;6.46;98.64;95762.50;5093277;28;19998;-73
2021/10/29 17:14:31;;;;;;;;;;;;;;;6.57;98.20;95774.81;5092049;28;19912;-76
2021/10/29 17:16:57;;;;;;;;;;;;;;;6.53;97.87;95774.44;5078130;28;19956;-79
2021/10/29 17:19:22;;;;;;;;;;;;;;;6.62;97.38;95772.34;5092008;28;19912;-83
2021/10/29 17:21:50;;;;;;;;;;;;;;;6.60;97.68;95769.13;5070415;28;20453;-82
2021/10/29 17:24:17;;;;;;;;;;;;;;;6.60;98.17;95763.13;5075584;28;19924;-80
2021/10/29 17:26:45;;;;;;;;;;;;;;;6.69;97.78;95767.03;5066201;28;20002;-80
2021/10/29 17:29:10;;;;;;;;;;;;;;;6.65;98.10;95758.03;5061646;28;19925;-81
2021/10/29 17:31:37;;;;;;;;;;;;;;;6.54;98.38;95749.91;5060282;28;19951;-78
2021/10/29 17:34:05;;;;;;;;;;;;;;;6.48;98.49;95758.63;5058813;28;19979;-79
2021/10/29 17:36:31;;;;;;;;;;;;;;;6.57;98.84;95764.38;5059627;28;19925;-78
2021/10/29 17:38:56;;;;;;;;;;;;;;;6.71;97.41;95764.97;5059580;28;19925;-79
2021/10/29 17:41:24;;;;;;;;;;;;;;;6.85;97.11;95766.41;5062734;28;19977;-78
2021/10/29 17:43:49;;;;;;;;;;;;;;;6.77;96.58;95764.88;5063712;28;19951;-78